Time;durP1;ratioP1;P1;durP2;ratioP2;P2;SDS_P1;SDS_P2;PMS_P1;PMS_P2;Temp;Humidity;BMP_temperature;BMP_pressure;BME280_temperature;BME280_humidity;BME280_pressure;Samples;Min_cycle;Max_cycle;Signal;HPM_P1;HPM_P2
2021/05/30 00:02:11;;;;;;;6.53;5.78;;;8.50;99.90;;;;;;4964045;28;20054;-73
2021/05/30 00:04:36;;;;;;;8.45;5.03;;;8.40;99.90;;;;;;4973215;28;20031;-74
2021/05/30 00:07:04;;;;;;;8.00;5.57;;;8.40;99.90;;;;;;4955128;28;20031;-72
2021/05/30 00:09:29;;;;;;;8.52;5.38;;;8.40;99.90;;;;;;4974035;28;20520;-72
2021/05/30 00:11:58;;;;;;;7.80;5.95;;;8.40;99.90;;;;;;4991941;28;20035;-74
2021/05/30 00:14:23;;;;;;;8.45;5.22;;;8.30;99.90;;;;;;4992223;28;20044;-73
2021/05/30 00:16:49;;;;;;;7.10;5.68;;;8.30;99.90;;;;;;4992369;28;20423;-74
2021/05/30 00:19:15;;;;;;;8.35;6.32;;;8.30;99.90;;;;;;4992198;28;20068;-72
2021/05/30 00:21:41;;;;;;;8.32;5.97;;;8.30;99.90;;;;;;4991573;28;20465;-71
2021/05/30 00:24:07;;;;;;;10.63;6.93;;;8.20;99.90;;;;;;4992204;28;20037;-72
2021/05/30 00:26:33;;;;;;;9.82;6.18;;;8.10;99.90;;;;;;4991805;28;20026;-72
2021/05/30 00:28:59;;;;;;;10.05;6.53;;;8.10;99.90;;;;;;4992189;28;20026;-72
2021/05/30 00:31:24;;;;;;;11.52;6.10;;;7.90;99.90;;;;;;4991133;28;20072;-71
2021/05/30 00:33:50;;;;;;;8.48;6.03;;;8.00;99.90;;;;;;4991292;28;20041;-72
2021/05/30 00:36:16;;;;;;;7.88;5.15;;;7.90;99.90;;;;;;4991951;28;20041;-75
2021/05/30 00:38:41;;;;;;;8.88;6.32;;;7.90;99.90;;;;;;4991680;28;20023;-74
2021/05/30 00:41:07;;;;;;;5.93;5.10;;;7.90;99.90;;;;;;4991043;28;20022;-72
2021/05/30 00:43:51;;;;;;;8.70;6.13;;;7.90;99.90;;;;;;4991819;28;20118;-73
2021/05/30 00:46:18;;;;;;;8.13;5.88;;;7.80;99.90;;;;;;4991622;28;20019;-73
2021/05/30 00:48:45;;;;;;;5.97;5.07;;;7.80;99.90;;;;;;4974488;28;20038;-72
2021/05/30 00:51:11;;;;;;;6.53;5.22;;;7.80;99.90;;;;;;4973138;28;20097;-72
2021/05/30 00:53:38;;;;;;;9.25;6.65;;;7.80;99.90;;;;;;4974391;28;20038;-73
2021/05/30 00:56:08;;;;;;;10.48;6.18;;;7.80;99.90;;;;;;4991451;28;20034;-73
2021/05/30 00:58:35;;;;;;;9.70;6.72;;;7.70;99.90;;;;;;4974408;28;20030;-72
2021/05/30 01:01:01;;;;;;;9.73;6.47;;;7.80;99.90;;;;;;4991076;28;20019;-72
2021/05/30 01:03:27;;;;;;;16.92;8.93;;;7.70;99.90;;;;;;4991551;28;20432;-73
2021/05/30 01:05:53;;;;;;;10.57;6.97;;;7.70;99.90;;;;;;4991590;28;20034;-73
2021/05/30 01:08:26;;;;;;;8.73;5.57;;;7.60;99.90;;;;;;4991743;28;20026;-73
2021/05/30 01:10:54;;;;;;;7.32;6.30;;;7.60;99.90;;;;;;4992629;28;20026;-72
2021/05/30 01:13:21;;;;;;;7.80;6.53;;;7.60;99.90;;;;;;4995726;28;20111;-73
2021/05/30 01:15:48;;;;;;;9.65;6.75;;;7.60;99.90;;;;;;4995212;28;20030;-73
2021/05/30 01:18:25;;;;;;;8.88;6.13;;;7.50;99.90;;;;;;4993563;28;20096;-73
2021/05/30 01:20:52;;;;;;;13.13;7.78;;;7.50;99.90;;;;;;4994992;28;20034;-72
2021/05/30 01:23:19;;;;;;;8.88;6.35;;;7.40;99.90;;;;;;4995360;28;20366;-72
2021/05/30 01:25:46;;;;;;;7.97;6.75;;;7.40;99.90;;;;;;4994954;28;20033;-73
2021/05/30 01:28:13;;;;;;;10.75;6.72;;;7.40;99.90;;;;;;4995277;28;20015;-73
2021/05/30 01:30:39;;;;;;;10.95;6.65;;;7.40;99.90;;;;;;4994313;28;20042;-73
2021/05/30 01:33:05;;;;;;;7.82;6.38;;;7.30;99.90;;;;;;4995211;28;20472;-73
2021/05/30 01:35:31;;;;;;;7.32;5.50;;;7.30;99.90;;;;;;4994837;28;20381;-72
2021/05/30 01:37:57;;;;;;;10.60;6.45;;;7.30;99.90;;;;;;4995121;28;20390;-73
2021/05/30 01:40:24;;;;;;;8.57;6.20;;;7.30;99.90;;;;;;4994075;28;20037;-74
2021/05/30 01:42:53;;;;;;;7.43;6.22;;;7.30;99.90;;;;;;4977530;28;20023;-73
2021/05/30 01:45:20;;;;;;;8.45;6.97;;;7.20;99.90;;;;;;4995070;28;20057;-74
2021/05/30 01:47:46;;;;;;;8.23;7.20;;;7.10;99.90;;;;;;4996069;28;20022;-73
2021/05/30 01:50:15;;;;;;;8.27;6.45;;;7.10;99.90;;;;;;4994941;28;20396;-72
2021/05/30 01:52:40;;;;;;;11.68;6.75;;;7.10;99.90;;;;;;4994901;28;20125;-73
2021/05/30 01:55:09;;;;;;;6.57;5.50;;;7.10;99.90;;;;;;4994555;28;20105;-73
2021/05/30 01:57:45;;;;;;;7.60;6.15;;;7.00;99.90;;;;;;4994778;28;20402;-71
2021/05/30 02:00:12;;;;;;;5.80;5.22;;;7.10;99.90;;;;;;4994005;28;20026;-72
2021/05/30 02:02:38;;;;;;;6.65;5.30;;;7.00;99.90;;;;;;4994692;28;20018;-72
2021/05/30 02:05:04;;;;;;;7.18;6.13;;;7.00;99.90;;;;;;4994437;28;20196;-72
2021/05/30 02:07:32;;;;;;;8.23;6.30;;;7.00;99.90;;;;;;4994627;28;20030;-72
2021/05/30 02:10:03;;;;;;;13.20;6.30;;;7.00;99.90;;;;;;4993841;28;20030;-72
2021/05/30 02:12:29;;;;;;;9.15;5.72;;;6.90;99.90;;;;;;4994472;28;20424;-73
2021/05/30 02:14:58;;;;;;;6.72;5.60;;;6.90;99.90;;;;;;4994356;28;20026;-71
2021/05/30 02:17:26;;;;;;;9.18;6.55;;;6.90;99.90;;;;;;4976907;28;20022;-72
2021/05/30 02:19:52;;;;;;;9.35;6.68;;;6.90;99.90;;;;;;4993743;28;20038;-72
2021/05/30 02:22:18;;;;;;;11.52;5.90;;;6.90;99.90;;;;;;4993531;28;20054;-72
2021/05/30 02:24:44;;;;;;;7.40;6.20;;;6.70;99.90;;;;;;4994250;28;20058;-74
2021/05/30 02:27:11;;;;;;;7.55;5.85;;;6.80;99.90;;;;;;4993995;28;20098;-73
2021/05/30 02:29:39;;;;;;;9.18;6.30;;;6.70;99.90;;;;;;4993454;28;20045;-73
2021/05/30 02:32:07;;;;;;;8.32;6.70;;;6.70;99.90;;;;;;4994058;28;20388;-73
2021/05/30 02:34:33;;;;;;;7.70;6.55;;;6.60;99.90;;;;;;4993933;28;20026;-73
2021/05/30 02:36:59;;;;;;;7.30;6.60;;;6.60;99.90;;;;;;4994181;28;20341;-73
2021/05/30 02:39:24;;;;;;;9.05;5.95;;;6.60;99.90;;;;;;4993623;28;20019;-74
2021/05/30 02:41:50;;;;;;;8.90;6.78;;;6.60;99.90;;;;;;4993616;28;20105;-73
2021/05/30 02:44:16;;;;;;;9.55;6.57;;;6.70;99.90;;;;;;4994048;28;20472;-73
2021/05/30 02:46:42;;;;;;;7.05;5.97;;;6.60;99.90;;;;;;4993780;28;20018;-74
2021/05/30 02:49:08;;;;;;;9.95;6.55;;;6.60;99.90;;;;;;4975468;28;20034;-73
2021/05/30 02:51:33;;;;;;;8.30;6.13;;;6.60;99.90;;;;;;4992988;28;20034;-74
2021/05/30 02:54:00;;;;;;;9.48;6.25;;;6.50;99.90;;;;;;4993522;28;20022;-73
2021/05/30 02:56:27;;;;;;;10.00;6.22;;;6.50;99.90;;;;;;4993482;28;20322;-72
2021/05/30 02:58:53;;;;;;;9.57;5.80;;;6.50;99.90;;;;;;4993771;28;20030;-73
2021/05/30 03:01:19;;;;;;;8.27;6.18;;;6.40;99.90;;;;;;4992987;28;20089;-72
2021/05/30 03:03:44;;;;;;;7.60;5.13;;;6.40;99.90;;;;;;4993542;28;20054;-72
2021/05/30 03:06:10;;;;;;;7.75;5.53;;;6.50;99.90;;;;;;4993969;28;20461;-74
2021/05/30 03:08:36;;;;;;;6.72;5.88;;;6.40;99.90;;;;;;4993879;28;20177;-74
2021/05/30 03:11:02;;;;;;;10.15;5.80;;;6.30;99.90;;;;;;4993183;28;20042;-73
2021/05/30 03:13:27;;;;;;;6.97;5.38;;;6.40;99.90;;;;;;4993914;28;20030;-73
2021/05/30 03:15:53;;;;;;;8.05;5.60;;;6.30;99.90;;;;;;4993943;28;20034;-74
2021/05/30 03:18:19;;;;;;;6.93;5.35;;;6.30;99.90;;;;;;4993266;28;20045;-73
2021/05/30 03:20:44;;;;;;;6.90;5.95;;;6.40;99.90;;;;;;4992430;28;20022;-73
2021/05/30 03:23:10;;;;;;;7.13;5.70;;;6.30;99.90;;;;;;4993432;28;20037;-73
2021/05/30 03:25:36;;;;;;;6.63;5.82;;;6.20;99.90;;;;;;4993400;28;20057;-73
2021/05/30 03:28:03;;;;;;;7.18;5.57;;;6.20;99.90;;;;;;4993520;28;20065;-72
2021/05/30 03:30:29;;;;;;;6.15;5.10;;;6.20;99.90;;;;;;4974883;28;20034;-73
2021/05/30 03:32:54;;;;;;;7.05;5.47;;;6.20;99.90;;;;;;4975533;28;20033;-73
2021/05/30 03:35:20;;;;;;;9.90;5.47;;;6.20;99.90;;;;;;4974452;28;20030;-72
2021/05/30 03:37:46;;;;;;;7.70;5.57;;;6.10;99.90;;;;;;4992989;28;20061;-72
2021/05/30 03:40:27;;;;;;;17.27;6.68;;;6.20;99.90;;;;;;4992550;28;20145;-74
2021/05/30 03:42:53;;;;;;;7.13;6.38;;;6.20;99.90;;;;;;4992948;28;20452;-74
2021/05/30 03:45:21;;;;;;;7.32;6.20;;;6.20;99.90;;;;;;4992941;28;20057;-74
2021/05/30 03:47:47;;;;;;;9.52;6.38;;;6.20;99.90;;;;;;4975250;28;20058;-73
2021/05/30 03:50:13;;;;;;;8.13;6.10;;;6.20;99.90;;;;;;4991827;28;20491;-73
2021/05/30 03:52:39;;;;;;;7.63;6.40;;;6.30;99.90;;;;;;4992896;28;20037;-73
2021/05/30 03:55:05;;;;;;;6.55;5.47;;;6.30;99.90;;;;;;4992479;28;20448;-73
2021/05/30 03:57:32;;;;;;;6.18;5.50;;;6.30;99.90;;;;;;4975382;28;20109;-73
2021/05/30 04:00:02;;;;;;;7.15;6.28;;;6.30;99.90;;;;;;4992243;28;20098;-73
2021/05/30 04:02:27;;;;;;;7.70;6.20;;;6.30;99.90;;;;;;4975323;28;20046;-74
2021/05/30 04:04:53;;;;;;;11.05;7.10;;;6.30;99.90;;;;;;4992124;28;20092;-73
2021/05/30 04:07:19;;;;;;;7.25;6.40;;;6.40;99.90;;;;;;4992798;28;20292;-72
2021/05/30 04:09:44;;;;;;;9.13;7.07;;;6.40;99.90;;;;;;4991831;28;20381;-73
2021/05/30 04:12:10;;;;;;;7.72;6.30;;;6.20;99.90;;;;;;4992263;28;20500;-73
2021/05/30 04:14:36;;;;;;;10.65;6.57;;;6.20;99.90;;;;;;4993172;28;20106;-74
2021/05/30 04:17:01;;;;;;;8.05;6.32;;;6.30;99.90;;;;;;4996037;28;20438;-72
2021/05/30 04:19:27;;;;;;;10.55;6.38;;;6.40;99.90;;;;;;4994493;28;20439;-73
2021/05/30 04:21:53;;;;;;;8.48;5.72;;;6.40;99.90;;;;;;4992945;28;20058;-74
2021/05/30 04:24:18;;;;;;;14.07;7.32;;;6.40;99.90;;;;;;4992807;28;20030;-74
2021/05/30 04:26:44;;;;;;;8.88;7.03;;;6.40;99.90;;;;;;4976266;28;20064;-74
2021/05/30 04:29:09;;;;;;;10.52;7.10;;;6.50;99.90;;;;;;4985667;28;20023;-74
2021/05/30 04:31:35;;;;;;;11.80;6.70;;;6.50;99.90;;;;;;5010777;28;20030;-74
2021/05/30 04:34:01;;;;;;;8.68;7.00;;;6.50;99.90;;;;;;4995443;28;20027;-74
2021/05/30 04:36:26;;;;;;;9.32;6.15;;;6.60;99.90;;;;;;4992424;28;20445;-74
2021/05/30 04:38:52;;;;;;;10.05;7.68;;;6.60;99.90;;;;;;4992375;28;20031;-74
2021/05/30 04:41:18;;;;;;;9.68;7.43;;;6.60;99.90;;;;;;4991823;28;20084;-71
2021/05/30 04:43:43;;;;;;;9.88;7.05;;;6.60;99.90;;;;;;4974720;28;20125;-72
2021/05/30 04:46:09;;;;;;;8.20;7.10;;;6.60;99.90;;;;;;4991861;28;20036;-73
2021/05/30 04:48:34;;;;;;;8.70;6.90;;;6.60;99.90;;;;;;4991850;28;20113;-74
2021/05/30 04:51:07;;;;;;;13.95;7.00;;;6.70;99.90;;;;;;4992030;28;20042;-73
2021/05/30 04:53:36;;;;;;;;;;;6.80;99.90;;;;;;5007163;28;20053;-74
2021/05/30 04:56:04;;;;;;;8.55;6.30;;;6.80;99.90;;;;;;4994224;28;19909;-73
2021/05/30 04:58:29;;;;;;;7.68;6.68;;;6.80;99.90;;;;;;4992068;28;20030;-73
2021/05/30 05:00:55;;;;;;;8.82;7.25;;;6.90;99.90;;;;;;4992614;28;20049;-75
2021/05/30 05:03:21;;;;;;;10.80;7.30;;;6.90;99.90;;;;;;4974909;28;20060;-74
2021/05/30 05:05:50;;;;;;;7.47;6.30;;;7.00;99.90;;;;;;4976008;28;20053;-75
2021/05/30 05:08:16;;;;;;;7.75;6.38;;;7.10;99.90;;;;;;4992134;28;20027;-72
2021/05/30 05:10:41;;;;;;;9.55;6.38;;;7.10;99.90;;;;;;4991298;28;20369;-73
2021/05/30 05:13:07;;;;;;;9.90;6.85;;;7.20;99.90;;;;;;4991607;28;20473;-73
2021/05/30 05:15:33;;;;;;;6.60;5.75;;;7.20;99.90;;;;;;4991728;28;20033;-72
2021/05/30 05:18:16;;;;;;;8.02;6.45;;;7.30;99.90;;;;;;4974346;28;20026;-73
2021/05/30 05:20:42;;;;;;;9.60;6.38;;;7.20;99.90;;;;;;4990762;28;20022;-73
2021/05/30 05:23:10;;;;;;;10.32;6.10;;;7.30;99.90;;;;;;4974036;28;20022;-74
2021/05/30 05:25:36;;;;;;;8.50;6.45;;;7.40;99.90;;;;;;4991684;28;20026;-73
2021/05/30 05:28:05;;;;;;;8.93;6.85;;;7.50;99.90;;;;;;4991721;28;20369;-74
2021/05/30 05:30:31;;;;;;;6.90;6.10;;;7.60;99.90;;;;;;4991650;28;20477;-73
2021/05/30 05:32:59;;;;;;;8.15;6.85;;;7.60;99.90;;;;;;4992027;28;20085;-73
2021/05/30 05:35:25;;;;;;;9.73;6.35;;;7.70;99.90;;;;;;4991293;28;20176;-72
2021/05/30 05:37:55;;;;;;;9.27;6.00;;;7.80;99.90;;;;;;4991637;28;20030;-72
2021/05/30 05:40:21;;;;;;;10.93;7.35;;;7.90;99.90;;;;;;4991024;28;20392;-73
2021/05/30 05:42:47;;;;;;;7.57;6.85;;;7.90;99.90;;;;;;4991306;28;20033;-72
2021/05/30 05:45:14;;;;;;;9.10;7.20;;;7.90;99.90;;;;;;4991303;28;20054;-72
2021/05/30 05:47:43;;;;;;;7.47;6.43;;;8.00;99.90;;;;;;4991699;28;20030;-73
2021/05/30 05:50:20;;;;;;;6.95;6.25;;;8.10;99.90;;;;;;4990235;28;20389;-73
2021/05/30 05:52:46;;;;;;;6.57;5.93;;;8.20;99.90;;;;;;4991232;28;20034;-75
2021/05/30 05:55:13;;;;;;;10.20;6.72;;;8.30;99.90;;;;;;4991307;28;20031;-74
2021/05/30 05:57:40;;;;;;;6.53;5.40;;;8.40;99.90;;;;;;4992943;28;20077;-73
2021/05/30 06:00:08;;;;;;;7.35;6.47;;;8.50;99.90;;;;;;4994748;28;20030;-71
2021/05/30 06:02:34;;;;;;;6.53;5.88;;;8.60;99.90;;;;;;4977431;28;20065;-72
2021/05/30 06:04:59;;;;;;;6.30;5.45;;;8.70;99.90;;;;;;4994741;28;20062;-72
2021/05/30 06:07:25;;;;;;;7.38;5.80;;;8.70;99.90;;;;;;4995010;28;20045;-73
2021/05/30 06:09:51;;;;;;;8.85;5.53;;;8.90;99.90;;;;;;4994031;28;20105;-73
2021/05/30 06:12:17;;;;;;;6.78;5.57;;;9.00;99.90;;;;;;4988422;28;20037;-72
2021/05/30 06:14:45;;;;;;;5.22;4.72;;;9.10;99.90;;;;;;4985722;28;20061;-74
2021/05/30 06:17:11;;;;;;;8.90;5.10;;;9.20;99.90;;;;;;4993741;28;20035;-72
2021/05/30 06:19:36;;;;;;;4.65;4.25;;;9.40;99.90;;;;;;4993321;28;20397;-73
2021/05/30 06:22:02;;;;;;;7.25;4.45;;;9.50;99.90;;;;;;4993517;28;20022;-73
2021/05/30 06:24:28;;;;;;;4.30;4.00;;;9.60;99.90;;;;;;4993696;28;20129;-74
2021/05/30 06:26:55;;;;;;;7.15;4.53;;;9.80;99.90;;;;;;4994137;28;20108;-73
2021/05/30 06:29:21;;;;;;;5.93;3.95;;;9.90;99.90;;;;;;4997364;28;20069;-75
2021/05/30 06:31:47;;;;;;;5.35;3.58;;;10.00;99.90;;;;;;4979663;28;20042;-75
2021/05/30 06:34:15;;;;;;;4.10;3.20;;;10.20;99.90;;;;;;4960154;28;20081;-74
2021/05/30 06:36:44;;;;;;;7.30;3.63;;;10.50;99.90;;;;;;4975131;28;20477;-74
2021/05/30 06:39:11;;;;;;;3.35;3.05;;;10.80;99.90;;;;;;4978135;28;20026;-77
2021/05/30 06:41:40;;;;;;;4.40;3.28;;;11.00;99.90;;;;;;4978551;28;20488;-76
2021/05/30 06:44:06;;;;;;;5.18;3.13;;;11.10;99.90;;;;;;4982151;28;20031;-78
2021/05/30 06:46:33;;;;;;;3.28;2.97;;;11.30;99.90;;;;;;4979250;28;20026;-76
2021/05/30 06:48:59;;;;;;;6.20;3.08;;;11.60;99.90;;;;;;4982587;28;20034;-77
2021/05/30 06:51:32;;;;;;;3.17;2.88;;;11.70;99.90;;;;;;4962183;28;20469;-77
2021/05/30 06:54:02;;;;;;;3.58;3.25;;;12.00;99.90;;;;;;4966218;28;20034;-74
2021/05/30 06:56:29;;;;;;;13.90;2.88;;;12.30;99.90;;;;;;4958672;28;20023;-75
2021/05/30 06:58:55;;;;;;;3.78;2.80;;;12.60;99.90;;;;;;4978483;28;20019;-74
2021/05/30 07:01:22;;;;;;;3.20;2.92;;;13.00;99.90;;;;;;4976344;28;20548;-75
2021/05/30 07:03:49;;;;;;;6.05;3.20;;;13.40;99.90;;;;;;5005248;28;20007;-75
2021/05/30 07:06:15;;;;;;;2.88;2.63;;;13.80;99.90;;;;;;4999205;28;20054;-74
2021/05/30 07:08:41;;;;;;;4.28;3.35;;;14.00;99.90;;;;;;4993622;28;20070;-73
2021/05/30 07:11:08;;;;;;;2.97;2.78;;;14.20;99.90;;;;;;4996712;28;20026;-74
2021/05/30 07:13:34;;;;;;;3.70;2.95;;;14.30;99.90;;;;;;4999216;28;20495;-74
2021/05/30 07:16:00;;;;;;;3.55;2.95;;;14.50;99.90;;;;;;4997398;28;20027;-73
2021/05/30 07:18:27;;;;;;;2.70;2.50;;;14.70;99.90;;;;;;4990363;28;20027;-73
2021/05/30 07:20:53;;;;;;;5.82;2.83;;;14.60;99.90;;;;;;4965193;28;20066;-74
2021/05/30 07:23:23;;;;;;;2.97;2.58;;;14.70;99.90;;;;;;4966550;28;20086;-73
2021/05/30 07:25:51;;;;;;;2.40;2.20;;;14.80;99.90;;;;;;4972639;28;20420;-74
2021/05/30 07:28:17;;;;;;;2.42;2.22;;;14.80;99.90;;;;;;4982330;28;20034;-74
2021/05/30 07:30:43;;;;;;;3.63;2.65;;;14.90;99.90;;;;;;4996845;28;20033;-74
2021/05/30 07:33:09;;;;;;;3.33;2.22;;;15.10;99.90;;;;;;5001290;28;20105;-74
2021/05/30 07:35:35;;;;;;;6.50;2.28;;;15.30;99.90;;;;;;5000468;28;20419;-74
2021/05/30 07:38:02;;;;;;;2.25;2.05;;;15.50;99.90;;;;;;4978118;28;20504;-72
2021/05/30 07:40:29;;;;;;;2.25;2.05;;;15.50;99.90;;;;;;4978206;28;20026;-75
2021/05/30 07:42:54;;;;;;;2.30;1.88;;;15.60;99.90;;;;;;4960004;28;20366;-73
2021/05/30 07:45:21;;;;;;;9.55;2.50;;;15.80;99.90;;;;;;4991416;28;20101;-74
2021/05/30 07:47:48;;;;;;;3.47;2.35;;;15.80;99.90;;;;;;5002629;28;20018;-76
2021/05/30 07:50:15;;;;;;;2.30;2.10;;;15.80;99.90;;;;;;4977834;28;20034;-75
2021/05/30 07:52:41;;;;;;;4.03;1.95;;;16.10;99.90;;;;;;5000750;28;20558;-75
2021/05/30 07:55:09;;;;;;;2.28;1.90;;;16.10;99.80;;;;;;4997326;28;20030;-75
2021/05/30 07:57:36;;;;;;;2.25;1.70;;;16.20;99.20;;;;;;4995677;28;20023;-73
2021/05/30 08:00:05;;;;;;;1.98;1.67;;;16.50;99.20;;;;;;4991862;28;20109;-72
2021/05/30 08:02:30;;;;;;;1.92;1.80;;;16.40;98.00;;;;;;4984199;28;20018;-73
2021/05/30 08:04:56;;;;;;;2.33;2.13;;;16.50;98.20;;;;;;4988867;28;20066;-73
2021/05/30 08:07:22;;;;;;;4.32;1.67;;;16.70;98.90;;;;;;4978277;28;20038;-74
2021/05/30 08:09:48;;;;;;;1.90;1.75;;;17.00;97.70;;;;;;4982033;28;20101;-72
2021/05/30 08:12:14;;;;;;;2.33;2.00;;;17.20;97.40;;;;;;4983355;28;20070;-73
2021/05/30 08:14:40;;;;;;;7.18;1.92;;;17.20;97.30;;;;;;4991426;28;20030;-73
2021/05/30 08:17:06;;;;;;;3.97;1.60;;;17.40;96.30;;;;;;4975742;28;20025;-73
2021/05/30 08:19:34;;;;;;;4.75;1.75;;;17.50;96.40;;;;;;4978390;28;20031;-73
2021/05/30 08:21:59;;;;;;;2.72;1.88;;;17.60;96.00;;;;;;4989671;28;20053;-73
2021/05/30 08:24:26;;;;;;;2.90;2.08;;;17.60;95.80;;;;;;4994025;28;20109;-74
2021/05/30 08:26:53;;;;;;;1.88;1.55;;;17.40;94.70;;;;;;4999929;28;20018;-74
2021/05/30 08:29:21;;;;;;;3.45;2.10;;;17.80;95.00;;;;;;4994940;28;20022;-73
2021/05/30 08:31:49;;;;;;;1.73;1.63;;;18.10;93.10;;;;;;4996832;28;20034;-74
2021/05/30 08:34:15;;;;;;;3.47;1.80;;;17.80;89.40;;;;;;4995641;28;20413;-73
2021/05/30 08:36:41;;;;;;;3.03;2.13;;;17.70;88.80;;;;;;4993026;28;20026;-72
2021/05/30 08:39:07;;;;;;;2.17;1.58;;;17.70;89.70;;;;;;4998333;28;20023;-75
2021/05/30 08:41:32;;;;;;;1.67;1.33;;;18.10;89.20;;;;;;4998307;28;20092;-76
2021/05/30 08:43:58;;;;;;;1.70;1.60;;;18.30;84.80;;;;;;4983193;28;20102;-74
2021/05/30 08:46:28;;;;;;;1.58;1.48;;;18.10;83.80;;;;;;4995429;28;20030;-73
2021/05/30 08:48:58;;;;;;;3.88;1.50;;;17.90;85.10;;;;;;4995802;28;20029;-74
2021/05/30 08:51:25;;;;;;;2.35;1.58;;;18.50;84.90;;;;;;4993450;28;20550;-73
2021/05/30 08:53:51;;;;;;;1.42;1.33;;;18.80;83.00;;;;;;5001423;28;20058;-72
2021/05/30 08:56:17;;;;;;;1.60;1.42;;;18.80;82.00;;;;;;4985255;28;20037;-74
2021/05/30 08:58:48;;;;;;;4.00;1.77;;;18.40;85.40;;;;;;4986670;28;20022;-73
2021/05/30 09:01:16;;;;;;;2.67;1.65;;;18.70;83.60;;;;;;5004092;28;20030;-74
2021/05/30 09:03:53;;;;;;;2.55;1.60;;;19.20;80.20;;;;;;5001854;28;20030;-74
2021/05/30 09:06:19;;;;;;;3.50;2.10;;;19.10;79.80;;;;;;5002096;28;20026;-73
2021/05/30 09:08:48;;;;;;;2.40;1.60;;;20.50;78.40;;;;;;4973390;28;20489;-74
2021/05/30 09:11:14;;;;;;;2.13;1.50;;;20.80;77.30;;;;;;4973509;28;20077;-73
2021/05/30 09:13:59;;;;;;;1.55;1.35;;;20.70;73.60;;;;;;4958378;28;20378;-73
2021/05/30 09:16:49;;;;;;;2.45;1.20;;;20.50;73.90;;;;;;4977420;28;20027;-74
2021/05/30 09:19:36;;;;;;;1.27;1.17;;;20.80;72.80;;;;;;4958747;28;20067;-74
2021/05/30 09:22:35;;;;;;;1.45;1.33;;;21.10;70.60;;;;;;4982522;28;20022;-74
2021/05/30 09:25:13;;;;;;;1.42;1.33;;;21.00;66.80;;;;;;4977963;28;20034;-72
2021/05/30 09:27:43;;;;;;;2.47;1.42;;;21.00;68.30;;;;;;4992476;28;20355;-74
2021/05/30 09:30:20;;;;;;;1.40;1.30;;;21.30;67.90;;;;;;4994402;28;20034;-73
2021/05/30 09:33:09;;;;;;;1.88;1.23;;;20.90;67.80;;;;;;5003317;28;20058;-73
2021/05/30 09:35:37;;;;;;;2.45;1.30;;;21.20;68.60;;;;;;4985213;28;20057;-75
2021/05/30 09:38:09;;;;;;;2.92;1.50;;;21.60;66.90;;;;;;4985078;28;20171;-73
2021/05/30 09:40:48;;;;;;;3.63;1.42;;;21.30;65.60;;;;;;5002904;28;20330;-74
2021/05/30 09:43:15;;;;;;;2.15;1.55;;;21.40;67.60;;;;;;5002272;28;20042;-76
2021/05/30 09:45:55;;;;;;;4.43;2.42;;;20.70;65.20;;;;;;5002282;28;20395;-74
2021/05/30 09:48:21;;;;;;;4.68;1.95;;;20.70;65.80;;;;;;4996850;28;20646;-73
2021/05/30 09:51:03;;;;;;;1.75;1.65;;;20.50;66.90;;;;;;4997468;28;20046;-72
2021/05/30 09:53:39;;;;;;;9.20;1.70;;;19.90;68.90;;;;;;4998866;28;20022;-73
2021/05/30 09:56:05;;;;;;;5.05;1.70;;;19.10;66.50;;;;;;4999135;28;20033;-74
2021/05/30 09:58:31;;;;;;;3.40;1.30;;;19.40;70.10;;;;;;5001808;28;20026;-72
2021/05/30 10:00:58;;;;;;;2.72;1.65;;;19.80;69.10;;;;;;5004160;28;20176;-75
2021/05/30 10:03:25;;;;;;;2.72;2.00;;;19.40;71.00;;;;;;4989460;28;20094;-74
2021/05/30 10:05:51;;;;;;;3.85;2.00;;;18.80;70.60;;;;;;4981016;28;20037;-73
2021/05/30 10:08:18;;;;;;;2.10;1.60;;;18.40;72.00;;;;;;4994428;28;20034;-74
2021/05/30 10:10:45;;;;;;;2.40;1.70;;;19.00;73.20;;;;;;4981030;28;20056;-74
2021/05/30 10:13:11;;;;;;;2.75;1.98;;;19.50;71.20;;;;;;4994044;28;20041;-72
2021/05/30 10:15:38;;;;;;;3.72;1.50;;;20.00;69.90;;;;;;4994281;28;20493;-72
2021/05/30 10:18:21;;;;;;;2.58;1.90;;;20.40;68.10;;;;;;4996695;28;20023;-71
2021/05/30 10:20:50;;;;;;;3.00;2.03;;;20.30;69.90;;;;;;4982964;28;20033;-73
2021/05/30 10:23:18;;;;;;;3.22;1.70;;;20.50;69.00;;;;;;4987173;28;20027;-72
2021/05/30 10:25:44;;;;;;;2.47;2.00;;;20.70;67.10;;;;;;5000463;28;20036;-74
2021/05/30 10:28:13;;;;;;;1.80;1.70;;;20.80;68.10;;;;;;4999696;28;20104;-72
2021/05/30 10:30:45;;;;;;;2.83;1.90;;;20.70;66.20;;;;;;5005651;28;20053;-75
2021/05/30 10:33:17;;;;;;;4.47;2.00;;;20.40;66.10;;;;;;4986553;28;20041;-74
2021/05/30 10:35:47;;;;;;;2.65;1.80;;;20.50;67.50;;;;;;5005601;28;20061;-74
2021/05/30 10:38:41;;;;;;;1.67;1.58;;;21.10;67.40;;;;;;4982666;28;20113;-73
2021/05/30 10:41:14;;;;;;;3.30;2.10;;;21.00;69.50;;;;;;5001919;28;20092;-71
2021/05/30 10:43:40;;;;;;;2.45;2.22;;;21.40;69.30;;;;;;5001076;28;20027;-73
2021/05/30 10:46:07;;;;;;;1.90;1.77;;;21.80;66.40;;;;;;5003969;28;20082;-73
2021/05/30 10:48:33;;;;;;;3.15;2.20;;;21.00;65.10;;;;;;5002579;28;20117;-73
2021/05/30 10:53:29;;;;;;;3.10;2.03;;;21.50;68.00;;;;;;4995568;28;20106;-71
2021/05/30 10:56:31;;;;;;;2.65;1.73;;;21.80;63.30;;;;;;4994492;28;20026;-72
2021/05/30 10:59:06;;;;;;;2.05;1.95;;;21.80;59.70;;;;;;4992563;28;20098;-73
2021/05/30 11:01:35;;;;;;;1.40;1.30;;;21.40;62.00;;;;;;4993047;28;20023;-72
2021/05/30 11:04:31;;;;;;;2.60;1.80;;;21.20;66.20;;;;;;4994109;28;20025;-73
2021/05/30 11:07:01;;;;;;;3.40;1.70;;;21.50;63.90;;;;;;4994161;28;20027;-72
2021/05/30 11:09:48;;;;;;;2.40;2.20;;;21.80;59.50;;;;;;4974698;28;20394;-72
2021/05/30 11:12:30;;;;;;;2.60;1.73;;;21.90;59.60;;;;;;4974170;28;20023;-73
2021/05/30 11:15:10;;;;;;;2.80;1.70;;;21.50;61.10;;;;;;4978207;28;20038;-72
2021/05/30 11:17:38;;;;;;;2.28;1.65;;;21.90;59.90;;;;;;4982856;28;20023;-71
2021/05/30 11:20:05;;;;;;;1.60;1.50;;;22.50;59.60;;;;;;4994043;28;20034;-73
2021/05/30 11:22:46;;;;;;;3.05;1.58;;;22.80;60.80;;;;;;4986927;28;20169;-72
2021/05/30 11:25:13;;;;;;;2.10;1.60;;;22.90;57.60;;;;;;4987130;28;20034;-72
2021/05/30 11:27:59;;;;;;;5.65;1.50;;;22.60;57.20;;;;;;4993106;28;20484;-74
2021/05/30 11:30:52;;;;;;;5.13;1.60;;;23.10;58.90;;;;;;4992053;28;20037;-74
2021/05/30 11:33:25;;;;;;;1.95;1.85;;;23.30;58.40;;;;;;4993852;28;20170;-73
2021/05/30 11:35:52;;;;;;;3.65;2.10;;;23.20;58.80;;;;;;4992406;28;20027;-72
2021/05/30 11:38:18;;;;;;;1.63;1.30;;;23.10;58.60;;;;;;4991427;28;20101;-74
2021/05/30 11:40:44;;;;;;;3.28;1.80;;;23.40;57.10;;;;;;4992714;28;20120;-73
2021/05/30 11:43:18;;;;;;;1.98;1.83;;;23.50;57.50;;;;;;4994037;28;20037;-74
2021/05/30 11:45:48;;;;;;;2.17;1.70;;;23.60;58.30;;;;;;4973242;28;20117;-72
2021/05/30 11:48:19;;;;;;;2.30;2.08;;;23.40;57.80;;;;;;4994717;28;20030;-73
2021/05/30 11:50:51;;;;;;;3.22;1.77;;;22.70;59.30;;;;;;4991753;28;20164;-75
2021/05/30 11:53:24;;;;;;;;;;;21.80;59.20;;;;;;5010209;23;20022;-75
2021/05/30 11:55:49;;;;;;;;;;;21.60;60.20;;;;;;4986691;28;19989;-75
2021/05/30 11:58:15;;;;;;;2.90;1.67;;;21.90;59.10;;;;;;4998107;28;20078;-74
2021/05/30 12:00:43;;;;;;;2.40;1.65;;;22.60;58.70;;;;;;4996113;28;20038;-75
2021/05/30 12:03:13;;;;;;;2.75;1.98;;;22.80;57.80;;;;;;4997962;28;20058;-75
2021/05/30 12:05:39;;;;;;;2.88;1.60;;;23.10;56.30;;;;;;4999575;28;20022;-76
2021/05/30 12:08:18;;;;;;;1.70;1.60;;;23.20;57.10;;;;;;4998365;28;20023;-75
2021/05/30 12:10:52;;;;;;;7.35;1.88;;;23.10;57.40;;;;;;4994165;28;20080;-77
2021/05/30 12:13:25;;;;;;;2.05;1.77;;;23.20;56.00;;;;;;4975023;28;20026;-76
2021/05/30 12:15:51;;;;;;;2.85;1.60;;;23.30;55.80;;;;;;4992804;28;20049;-76
2021/05/30 12:18:16;;;;;;;2.60;2.00;;;23.70;54.80;;;;;;4993635;28;20026;-76
2021/05/30 12:20:44;;;;;;;2.00;1.90;;;24.00;54.40;;;;;;4976020;28;20025;-75
2021/05/30 12:23:16;;;;;;;2.55;1.88;;;23.60;55.70;;;;;;4991950;28;20022;-74
2021/05/30 12:25:53;;;;;;;2.35;2.15;;;24.20;58.60;;;;;;4975214;28;20496;-75
2021/05/30 12:28:26;;;;;;;3.33;1.83;;;24.10;55.10;;;;;;4995212;28;20109;-75
2021/05/30 12:30:53;;;;;;;2.60;1.70;;;23.10;57.50;;;;;;4992324;28;20075;-75
2021/05/30 12:33:21;;;;;;;2.55;1.83;;;23.10;57.50;;;;;;4975479;28;20030;-75
2021/05/30 12:35:52;;;;;;;2.42;1.98;;;23.40;57.60;;;;;;4994128;28;20034;-75
2021/05/30 12:38:27;;;;;;;2.60;2.03;;;23.50;57.50;;;;;;5001235;28;20018;-76
2021/05/30 12:40:54;;;;;;;2.85;1.77;;;24.10;55.80;;;;;;4991962;28;20121;-76
2021/05/30 12:43:40;;;;;;;2.03;1.83;;;24.90;55.20;;;;;;4992685;28;20616;-73
2021/05/30 12:46:09;;;;;;;1.70;1.60;;;25.10;52.40;;;;;;4992354;28;20030;-73
2021/05/30 12:48:48;;;;;;;1.60;1.50;;;24.80;53.10;;;;;;4992007;28;20026;-73
2021/05/30 12:51:25;;;;;;;2.45;1.80;;;24.50;53.40;;;;;;4991302;28;20100;-73
2021/05/30 12:53:51;;;;;;;3.42;1.80;;;24.60;53.30;;;;;;4991405;28;20128;-73
2021/05/30 12:56:25;;;;;;;1.52;1.35;;;24.80;53.90;;;;;;4992218;28;20062;-73
2021/05/30 12:59:14;;;;;;;2.38;1.92;;;23.80;53.70;;;;;;4991579;28;20035;-72
2021/05/30 13:01:42;;;;;;;4.15;1.80;;;22.50;54.90;;;;;;4991229;28;20106;-73
2021/05/30 13:04:30;;;;;;;1.70;1.60;;;22.60;56.00;;;;;;4992151;28;20018;-72